»·PEaware :: N416JK KTVL-KBFL

N416JK :: KTVL-KBFL

FLIGHT INFORMATION

Flight Status: Arrived
Operator: Privately registered:
United States
More flights under this callsign
Pilot: John K. (4202)
Aircraft: Unknown
(EPIC)
More flights by this aircraft type
Origin: KTVL Lake Tahoe
United States
Destination: KBFL Meadows
United States
More flights between these airports :: More routes between these airports
Route: +MARRI V165 CZQ V23 EHF
File this flight plan on PilotEdge
Remarks:
Altitude:
(Current/Filed)
12,000ft
Speed:
(Current/Filed)
250kts
Departed: 04-Jan-18 09:20 AM
Arrived: 04-Jan-18 10:44 AM
Distance/Time
Traveled:
213nm/1:24
Distance/Time
To Go:
Arrived

Flight Plot

Page will automatically refresh every two minutes.

Flight plan parsing failed; only flown route is shown


Map Options




Map Legend


Flown Route
Filed Route
Departure Airport
Arrival Airport
Navaid (VOR, NDB)
Fix

Horizontal Profiles

Position Reports

Time Latitude Longitude Heading Altitude Ground
Speed
04-Jan-18 09:17 38.889514 -119.998073 130 6268ft 0kts
04-Jan-18 09:18 38.889514 -119.998073 130 6268ft 0kts
04-Jan-18 09:19 38.889514 -119.998073 130 6268ft 0kts
04-Jan-18 09:20 38.889514 -119.998073 130 6268ft 0kts
04-Jan-18 09:21 38.887928 -119.998115 196 6268ft 15kts
04-Jan-18 09:22 38.882883 -119.999589 137 6268ft 0kts
04-Jan-18 09:23 38.882883 -119.999589 137 6268ft 0kts
04-Jan-18 09:24 38.882883 -119.999589 137 6268ft 0kts
04-Jan-18 09:25 38.882883 -119.999589 137 6268ft 0kts
04-Jan-18 09:26 38.883609 -119.998390 4 6268ft 49kts
04-Jan-18 09:27 38.923522 -120.000082 343 7229ft 215kts
04-Jan-18 09:28 38.989851 -120.020163 343 7989ft 275kts
04-Jan-18 09:29 39.044806 -120.077751 305 8852ft 271kts
04-Jan-18 09:30 39.094257 -120.149515 306 9751ft 263kts
04-Jan-18 09:31 39.141420 -120.215475 306 10626ft 257kts
04-Jan-18 09:32 39.188141 -120.280484 305 11504ft 255kts
04-Jan-18 09:33 39.166681 -120.341348 189 11967ft 232kts
04-Jan-18 09:34 39.143911 -120.274331 69 11982ft 291kts
04-Jan-18 09:35 39.134204 -120.188679 148 11980ft 256kts
04-Jan-18 09:36 39.078424 -120.124589 141 11976ft 285kts
04-Jan-18 09:37 39.023534 -120.052472 138 11974ft 296kts
04-Jan-18 09:38 38.968435 -119.978661 138 11975ft 297kts
04-Jan-18 09:39 38.913552 -119.904523 138 11983ft 297kts
04-Jan-18 09:40 38.858021 -119.828413 138 11989ft 295kts
04-Jan-18 09:41 38.804257 -119.755368 138 11997ft 294kts
04-Jan-18 09:42 38.741169 -119.704162 181 11999ft 278kts
04-Jan-18 09:43 38.663689 -119.707129 184 11991ft 278kts
04-Jan-18 09:44 38.588980 -119.711895 184 11980ft 279kts
04-Jan-18 09:45 38.514793 -119.716865 185 12590ft 268kts
04-Jan-18 09:46 38.445105 -119.721562 185 14002ft 255kts
04-Jan-18 09:47 38.376177 -119.726213 186 15501ft 247kts
04-Jan-18 09:48 38.306706 -119.730949 186 15979ft 269kts
04-Jan-18 09:49 38.232958 -119.735433 185 15977ft 281kts
04-Jan-18 09:50 38.154981 -119.740112 185 15976ft 284kts
04-Jan-18 09:51 38.078368 -119.744701 185 15976ft 285kts
04-Jan-18 09:52 38.001748 -119.749281 185 15960ft 286kts
04-Jan-18 09:53 37.922275 -119.754022 185 15940ft 287kts
04-Jan-18 09:54 37.844362 -119.758660 185 15941ft 290kts
04-Jan-18 09:55 37.766365 -119.763289 185 15949ft 290kts
04-Jan-18 09:56 37.687902 -119.767939 185 15947ft 290kts
04-Jan-18 09:57 37.607305 -119.772707 185 15940ft 290kts
04-Jan-18 09:58 37.529108 -119.777326 185 15940ft 290kts
04-Jan-18 09:59 37.449984 -119.781985 185 15946ft 290kts
04-Jan-18 10:00 37.369782 -119.786701 185 15956ft 291kts
04-Jan-18 10:01 37.294941 -119.791088 185 15955ft 291kts
04-Jan-18 10:02 37.231366 -119.794781 185 15952ft 284kts
04-Jan-18 10:03 37.155787 -119.799216 185 15007ft 274kts
04-Jan-18 10:04 37.083862 -119.803418 185 13836ft 263kts
04-Jan-18 10:05 37.025884 -119.806798 184 12876ft 262kts
04-Jan-18 10:06 36.952781 -119.811028 184 11669ft 265kts
04-Jan-18 10:07 36.904516 -119.813805 185 10879ft 268kts
04-Jan-18 10:08 36.876872 -119.810176 162 10420ft 276kts
04-Jan-18 10:09 36.851972 -119.797637 161 10000ft 277kts
04-Jan-18 10:10 36.830752 -119.786744 161 9639ft 277kts
04-Jan-18 10:11 36.801477 -119.771669 159 9125ft 284kts
04-Jan-18 10:12 36.749611 -119.744683 158 8313ft 279kts
04-Jan-18 10:13 36.688134 -119.712711 157 7187ft 246kts
04-Jan-18 10:14 36.627713 -119.681287 156 5995ft 235kts
04-Jan-18 10:15 36.569783 -119.651254 156 5016ft 225kts
04-Jan-18 10:16 36.516274 -119.623480 157 4996ft 196kts
04-Jan-18 10:17 36.464552 -119.596747 158 5002ft 220kts
04-Jan-18 10:18 36.407905 -119.567522 157 4837ft 239kts
04-Jan-18 10:19 36.343481 -119.534398 157 4045ft 258kts
04-Jan-18 10:20 36.277922 -119.500754 157 3262ft 261kts
04-Jan-18 10:21 36.213963 -119.467970 157 2998ft 241kts
04-Jan-18 10:22 36.154767 -119.437675 157 2999ft 230kts
04-Jan-18 10:23 36.096144 -119.407711 157 3001ft 227kts
04-Jan-18 10:24 36.038703 -119.378272 157 2986ft 227kts
04-Jan-18 10:25 35.981547 -119.348964 158 2988ft 226kts
04-Jan-18 10:26 35.924178 -119.319597 158 2993ft 221kts
04-Jan-18 10:27 35.869615 -119.291731 158 2997ft 218kts
04-Jan-18 10:28 35.814883 -119.263875 158 2999ft 215kts
04-Jan-18 10:29 35.760769 -119.236674 158 2998ft 214kts
04-Jan-18 10:30 35.706330 -119.209292 158 2998ft 207kts
04-Jan-18 10:31 35.655006 -119.183362 158 2997ft 196kts
04-Jan-18 10:32 35.606598 -119.158925 158 2997ft 188kts
04-Jan-18 10:33 35.559634 -119.135323 157 2995ft 184kts
04-Jan-18 10:34 35.512741 -119.111581 157 2992ft 182kts
04-Jan-18 10:35 35.466778 -119.088786 158 2991ft 181kts
04-Jan-18 10:36 35.421586 -119.067724 158 2990ft 174kts
04-Jan-18 10:37 35.378044 -119.047605 158 2990ft 161kts
04-Jan-18 10:38 35.338687 -119.029493 158 2990ft 158kts
04-Jan-18 10:39 35.298245 -119.010879 158 2990ft 158kts
04-Jan-18 10:40 35.266821 -118.975675 131 2990ft 157kts
04-Jan-18 10:41 35.238191 -118.933936 106 2981ft 166kts
04-Jan-18 10:42 35.262315 -118.895105 42 2985ft 133kts
04-Jan-18 10:43 35.291832 -118.903941 327 2991ft 128kts
04-Jan-18 10:44 35.323191 -118.929127 324 2491ft 140kts
04-Jan-18 10:45 35.351449 -118.957224 320 2490ft 132kts
04-Jan-18 10:46 35.378784 -118.989726 315 1995ft 153kts
04-Jan-18 10:47 35.405446 -119.021887 315 1262ft 112kts
04-Jan-18 10:48 35.424350 -119.044531 317 760ft 86kts
04-Jan-18 10:49 35.438222 -119.061603 318 508ft 54kts
04-Jan-18 10:50 35.440846 -119.062684 75 508ft 0kts
04-Jan-18 10:51 35.436419 -119.057085 135 508ft 43kts
04-Jan-18 10:52 35.429931 -119.049179 132 508ft 23kts
04-Jan-18 10:53 35.430536 -119.047762 146 508ft 0kts

Navigation Log

Ident Type
Flight plan parsing failed, navigation log unavailable